KEWR/EWR METAR and TAF weather

Enter ICAO airport designator
Station Type Date Time Source
KEWR METAR 2019/05/20 09:51 UTC NOAA

KEWR 200951Z 18005KT 10SM BKN150 BKN230 21/18 A2982 RMK AO2 SLP098 T02110178


Station Type Date Time Source
KEWR Decoded METAR 2019/05/20 09:51 UTC NOAA

NEWARK INTERNATIONAL AIRPORT, NJ, United States (KEWR) 40-41N 74-10W 7M
May 20, 2019 - 05:51 AM EDT / 2019.05.20 0951 UTC
Wind: from the S (180 degrees) at 6 MPH (5 KT):0
Visibility: 10 mile(s):0
Sky conditions: mostly cloudy
Temperature: 70.0 F (21.1 C)
Dew Point: 64.0 F (17.8 C)
Relative Humidity: 81%
Pressure (altimeter): 29.82 in. Hg (1009 hPa)
ob: KEWR 200951Z 18005KT 10SM BKN150 BKN230 21/18 A2982 RMK AO2 SLP098 T02110178
cycle: 10

Station Type Date Time Source
KEWR TAF 2019/05/20 09:51 UTC NOAA

TAF
AMD KEWR 200848Z 2009/2112 16006KT P6SM SCT050 SCT090 BKN200
FM201200 23010G21KT P6SM SCT040 BKN180
FM201700 22015G25KT P6SM SCT040 BKN150
TEMPO 2018/2021 5SM -TSRA BKN040CB
FM210000 28012G22KT P6SM SCT250
FM210300 30013G24KT P6SM SCT250

Example: see airport list